Time;durP1;ratioP1;P1;durP2;ratioP2;P2;SDS_P1;SDS_P2;PMS_P1;PMS_P2;Temp;Humidity;BMP_temperature;BMP_pressure;BME280_temperature;BME280_humidity;BME280_pressure;Samples;Min_cycle;Max_cycle;Signal;HPM_P1;HPM_P2
2023/06/07 00:00:00;;;;;;;6.57;4.57;;;;;;;-141.97;64.05;47707.44;5034298;28;20196;-84
2023/06/07 00:02:27;;;;;;;9.23;4.40;;;;;;;-141.97;64.30;47524.84;5034238;28;20166;-84
2023/06/07 00:04:53;;;;;;;9.13;4.60;;;;;;;-141.97;65.05;47465.25;5034412;28;20232;-84
2023/06/07 00:07:19;;;;;;;7.57;4.80;;;;;;;-141.97;64.98;47561.38;5034011;28;20170;-84
2023/06/07 00:09:45;;;;;;;8.43;4.43;;;;;;;-141.97;65.27;47711.28;5033056;28;20193;-85
2023/06/07 00:12:10;;;;;;;8.00;4.47;;;;;;;-141.97;65.87;47544.06;5033412;28;20162;-85
2023/06/07 00:14:36;;;;;;;8.00;4.80;;;;;;;-141.97;66.33;47553.69;5032392;28;20209;-86
2023/06/07 00:17:02;;;;;;;10.50;4.97;;;;;;;-141.97;66.95;47628.63;5033444;28;20249;-85
2023/06/07 00:19:29;;;;;;;7.73;4.50;;;;;;;-141.97;66.81;47486.41;5052408;28;20180;-84
2023/06/07 00:21:55;;;;;;;7.50;4.73;;;;;;;-141.97;66.83;47717.06;5047251;28;20226;-85
2023/06/07 00:24:21;;;;;;;10.47;4.80;;;;;;;-141.97;67.29;47361.47;5032951;28;20228;-85
2023/06/07 00:26:46;;;;;;;7.37;4.60;;;;;;;-141.97;67.35;47542.16;5053433;28;20241;-83
2023/06/07 00:29:14;;;;;;;8.13;4.67;;;;;;;-141.97;68.01;47530.59;5038833;28;20177;-85
2023/06/07 00:31:39;;;;;;;8.17;4.70;;;;;;;-141.97;68.14;47365.31;5033423;28;20241;-85
2023/06/07 00:34:05;;;;;;;8.90;5.10;;;;;;;-141.97;68.94;47707.44;5036856;28;20204;-86
2023/06/07 00:36:30;;;;;;;7.57;4.67;;;;;;;-141.97;69.46;47521.00;5040218;28;20173;-85
2023/06/07 00:38:56;;;;;;;9.27;4.90;;;;;;;-141.97;70.32;47438.34;5048947;28;20631;-85
2023/06/07 00:41:21;;;;;;;7.63;4.70;;;;;;;-141.97;70.44;47534.44;5037231;28;20294;-85
2023/06/07 00:43:47;;;;;;;7.00;5.17;;;;;;;-141.97;70.75;47519.06;5037802;28;20245;-85
2023/06/07 00:46:17;;;;;;;6.13;5.03;;;;;;;-141.97;70.70;47503.69;5038434;28;20249;-85
2023/06/07 00:48:43;;;;;;;10.17;5.17;;;;;;;-141.97;70.54;47726.66;5036818;28;20232;-85
2023/06/07 00:51:09;;;;;;;9.07;5.10;;;;;;;-141.97;70.83;47488.31;5036913;28;20162;-85
2023/06/07 00:53:35;;;;;;;7.87;4.83;;;;;;;-141.97;71.29;47524.84;5037031;28;20182;-85
2023/06/07 00:56:01;;;;;;;7.80;5.00;;;;;;;-141.97;71.58;47724.75;5036700;28;20177;-85
2023/06/07 00:58:27;;;;;;;10.47;5.43;;;;;;;-141.97;72.15;47486.41;5034794;28;20178;-84
2023/06/07 01:00:54;;;;;;;9.43;5.53;;;;;;;-141.97;73.14;47549.84;5036453;28;20162;-84
2023/06/07 01:03:21;;;;;;;9.83;5.50;;;;;;;-141.97;73.15;47501.78;5035118;28;20177;-84
2023/06/07 01:05:48;;;;;;;9.97;5.50;;;;;;;-141.97;73.43;47384.53;5035953;28;20583;-85
2023/06/07 01:08:14;;;;;;;9.93;5.70;;;;;;;-141.97;73.62;47546.00;5035324;28;20185;-86
2023/06/07 01:10:40;;;;;;;12.50;6.10;;;;;;;-141.97;73.83;47467.19;5034676;28;20170;-85
2023/06/07 01:13:07;;;;;;;9.97;5.97;;;;;;;-141.97;74.22;47640.16;5035799;28;20177;-85
2023/06/07 01:15:33;;;;;;;10.13;6.30;;;;;;;-141.97;74.55;47361.47;5036218;28;20622;-85
2023/06/07 01:18:01;;;;;;;10.87;6.70;;;;;;;-141.97;74.87;47563.28;5037319;28;20173;-84
2023/06/07 01:20:29;;;;;;;9.53;6.23;;;;;;;-141.97;75.18;47722.81;5035741;28;20154;-84
2023/06/07 01:22:58;;;;;;;10.40;6.73;;;;;;;-141.97;75.38;47557.53;5035644;28;20174;-83
2023/06/07 01:25:25;;;;;;;12.23;6.80;;;;;;;-141.97;75.62;47603.66;5035486;28;20169;-83
2023/06/07 01:27:52;;;;;;;10.10;6.60;;;;;;;-141.97;75.74;47734.34;5035219;28;20193;-83
2023/06/07 01:30:21;;;;;;;13.00;6.13;;;;;;;-141.97;76.31;47494.09;5033941;28;20166;-83
2023/06/07 01:32:48;;;;;;;10.53;6.33;;;;;;;-141.97;76.30;47734.34;5035007;28;20196;-85
2023/06/07 01:35:14;;;;;;;11.77;6.60;;;;;;;-141.97;75.99;47476.78;5035508;28;20186;-85
2023/06/07 01:37:43;;;;;;;9.67;6.47;;;;;;;-141.97;76.54;47588.28;5036137;28;20166;-85
2023/06/07 01:40:09;;;;;;;12.93;6.50;;;;;;;-141.97;76.95;47496.00;5036379;28;20170;-85
2023/06/07 01:42:36;;;;;;;9.80;6.50;;;;;;;-141.97;77.15;47524.84;5034899;28;20225;-85
2023/06/07 01:45:04;;;;;;;12.80;6.40;;;;;;;-141.97;78.80;47565.22;5034441;28;20250;-85
2023/06/07 01:47:30;;;;;;;13.23;7.23;;;;;;;-141.97;78.54;47551.75;5037543;28;20165;-86
2023/06/07 01:49:57;;;;;;;11.60;6.80;;;;;;;-141.97;78.99;47505.63;5037945;28;20600;-85
2023/06/07 01:52:22;;;;;;;12.80;6.67;;;;;;;-141.97;79.64;47715.13;5038501;28;20524;-85
2023/06/07 01:54:48;;;;;;;11.43;7.30;;;;;;;-141.97;80.03;47426.81;5035666;28;20200;-84
2023/06/07 01:57:20;;;;;;;11.63;6.90;;;;;;;-141.97;81.12;47553.69;5033537;28;20235;-84
2023/06/07 01:59:48;;;;;;;11.70;7.13;;;;;;;-141.97;81.64;47557.53;5034247;28;20178;-84
2023/06/07 02:02:19;;;;;;;14.30;8.00;;;;;;;-141.97;82.64;47603.66;5037979;28;20162;-85
2023/06/07 02:04:49;;;;;;;14.50;7.73;;;;;;;-141.97;82.83;47480.63;5036614;28;20196;-84
2023/06/07 02:07:23;;;;;;;10.77;7.47;;;;;;;-141.97;83.07;47553.69;5032780;28;20186;-84
2023/06/07 02:09:50;;;;;;;15.07;8.10;;;;;;;-141.97;83.57;47613.25;5038935;28;20273;-84
2023/06/07 02:12:17;;;;;;;13.33;7.90;;;;;;;-141.97;83.74;47536.38;5019554;28;20180;-85
2023/06/07 02:14:43;;;;;;;14.13;8.00;;;;;;;-141.97;84.59;47355.72;5019423;28;20663;-85
2023/06/07 02:17:09;;;;;;;15.67;8.93;;;;;;;-141.97;84.87;47599.81;5015511;28;20182;-85
2023/06/07 02:19:35;;;;;;;15.90;9.10;;;;;;;-141.97;85.76;47405.69;5014544;28;20246;-83
2023/06/07 02:22:01;;;;;;;16.97;9.47;;;;;;;-141.97;86.18;47572.91;5014673;28;20170;-83
2023/06/07 02:24:27;;;;;;;16.83;10.23;;;;;;;-141.97;86.20;47455.66;5015036;28;20183;-85
2023/06/07 02:26:56;;;;;;;20.23;10.20;;;;;;;-141.97;87.10;47546.00;5015156;28;20550;-84
2023/06/07 02:29:22;;;;;;;18.47;10.30;;;;;;;-141.97;87.20;47688.22;5014833;28;20171;-84
2023/06/07 02:31:48;;;;;;;17.97;11.37;;;;;;;-141.97;87.38;47590.19;5014499;28;20237;-84
2023/06/07 02:34:14;;;;;;;22.87;11.80;;;;;;;-141.97;87.58;47486.41;5012999;28;20190;-84
2023/06/07 02:36:40;;;;;;;19.67;12.00;;;;;;;-141.97;88.48;47718.97;5014215;28;20198;-84
2023/06/07 02:39:07;;;;;;;25.13;12.57;;;;;;;-141.97;88.68;47580.59;5014454;28;20261;-85
2023/06/07 02:41:33;;;;;;;20.20;12.40;;;;;;;-141.97;88.82;47565.22;5041398;28;20245;-82
2023/06/07 02:43:58;;;;;;;19.20;11.87;;;;;;;-141.97;88.59;47432.59;5034317;28;20353;-83
2023/06/07 02:46:24;;;;;;;22.00;12.50;;;;;;;-141.97;88.25;47665.16;5014478;28;20279;-83
2023/06/07 02:48:49;;;;;;;23.57;12.43;;;;;;;-141.97;87.90;47511.38;5015408;28;20175;-84
2023/06/07 02:51:15;;;;;;;24.07;13.23;;;;;;;-141.97;87.93;47669.00;5027954;28;20169;-84
2023/06/07 02:53:40;;;;;;;22.13;13.23;;;;;;;-141.97;87.97;47540.22;5016129;28;20186;-84
2023/06/07 02:56:05;;;;;;;23.20;13.87;;;;;;;-141.97;87.98;47699.75;5015546;28;20627;-83
2023/06/07 02:58:31;;;;;;;25.00;14.37;;;;;;;-141.97;87.85;47430.66;5029712;28;20237;-84
2023/06/07 03:00:57;;;;;;;26.67;14.13;;;;;;;-141.97;88.00;47515.22;5018995;28;20161;-84
2023/06/07 03:03:23;;;;;;;25.57;14.37;;;;;;;-141.97;88.00;47561.38;5020985;28;20201;-85
2023/06/07 03:05:49;;;;;;;25.43;13.73;;;;;;;-141.97;88.00;47549.84;5019394;28;20186;-84
2023/06/07 03:08:15;;;;;;;27.83;15.23;;;;;;;-141.97;88.22;47717.06;5016286;28;20163;-83
2023/06/07 03:10:40;;;;;;;26.77;15.17;;;;;;;-141.97;88.38;47757.41;5013553;28;20154;-82
2023/06/07 03:13:06;;;;;;;27.80;14.50;;;;;;;-141.97;88.00;47590.19;5013465;28;20627;-82
2023/06/07 03:15:32;;;;;;;26.67;14.67;;;;;;;-141.97;87.79;47620.94;5013745;28;20237;-82
2023/06/07 03:17:58;;;;;;;28.30;14.57;;;;;;;-141.97;87.73;47570.97;5012870;28;20562;-83
2023/06/07 03:20:24;;;;;;;32.23;15.10;;;;;;;-141.97;88.37;47519.06;5013559;28;20151;-81
2023/06/07 03:22:50;;;;;;;29.37;15.57;;;;;;;-141.97;87.85;47617.09;5013144;28;20155;-82
2023/06/07 03:25:15;;;;;;;31.00;15.70;;;;;;;-141.97;87.50;47576.75;5013416;28;20630;-82
2023/06/07 03:27:41;;;;;;;30.60;16.57;;;;;;;-141.97;87.52;47492.16;5013578;28;20206;-82
2023/06/07 03:30:07;;;;;;;32.37;16.50;;;;;;;-141.97;87.06;47709.38;5013641;28;20205;-82
2023/06/07 03:32:32;;;;;;;32.77;16.43;;;;;;;-141.97;86.88;47455.66;5013217;28;20170;-82
2023/06/07 03:34:58;;;;;;;30.87;16.53;;;;;;;-141.97;86.54;47605.56;5013014;28;20183;-82
2023/06/07 03:37:23;;;;;;;32.67;17.13;;;;;;;-141.97;86.20;47563.28;5013025;28;20233;-81
2023/06/07 03:39:49;;;;;;;32.57;16.60;;;;;;;-141.97;86.10;47595.97;5012959;28;20597;-82
2023/06/07 03:42:14;;;;;;;29.27;15.90;;;;;;;-141.97;85.90;47578.66;5013408;28;20215;-82
2023/06/07 03:44:40;;;;;;;29.67;16.40;;;;;;;-141.97;85.54;47542.16;5013067;28;20155;-82
2023/06/07 03:47:06;;;;;;;35.03;17.57;;;;;;;-141.97;84.62;47474.88;5012722;28;20157;-82
2023/06/07 03:49:31;;;;;;;37.70;16.90;;;;;;;-141.97;84.85;47707.44;5013164;28;20167;-83
2023/06/07 03:51:56;;;;;;;31.67;17.00;;;;;;;-141.97;84.67;47551.75;5013219;28;20166;-81
2023/06/07 03:54:22;;;;;;;32.93;17.60;;;;;;;-141.97;84.32;47599.81;5012577;28;20612;-82
2023/06/07 03:56:47;;;;;;;30.13;16.53;;;;;;;-141.97;83.86;47611.34;5013313;28;20245;-83
2023/06/07 03:59:13;;;;;;;31.47;16.87;;;;;;;-141.97;83.65;47743.97;5012772;28;20171;-82
2023/06/07 04:01:39;;;;;;;31.13;16.50;;;;;;;-141.97;83.72;47586.34;5013446;28;20182;-82
2023/06/07 04:04:05;;;;;;;28.33;16.27;;;;;;;-141.97;83.12;47688.22;5013170;28;20159;-80
2023/06/07 04:06:31;;;;;;;30.80;16.20;;;;;;;-141.97;82.35;47538.28;5011692;28;20182;-82
2023/06/07 04:08:57;;;;;;;31.50;16.47;;;;;;;-141.97;81.80;47538.28;5012724;28;20549;-81
2023/06/07 04:11:24;;;;;;;32.87;16.83;;;;;;;-141.97;81.88;47580.59;5012634;28;20166;-83
2023/06/07 04:13:49;;;;;;;29.20;16.53;;;;;;;-141.97;81.89;47569.06;5012438;28;20245;-82
2023/06/07 04:16:15;;;;;;;28.97;15.87;;;;;;;-141.97;81.89;47672.84;5012933;28;20559;-81
2023/06/07 04:18:40;;;;;;;28.20;15.80;;;;;;;-141.97;80.65;47717.06;5012087;28;20674;-82
2023/06/07 04:21:05;;;;;;;30.40;16.37;;;;;;;-141.97;80.48;47511.38;5012116;28;20163;-82
2023/06/07 04:23:32;;;;;;;32.87;16.83;;;;;;;-141.97;80.07;47597.88;5013282;28;20206;-82
2023/06/07 04:25:58;;;;;;;28.87;16.23;;;;;;;-141.97;80.02;47546.00;5013263;28;20665;-82
2023/06/07 04:28:24;;;;;;;30.83;16.60;;;;;;;-141.97;79.53;47588.28;5012694;28;20155;-81
2023/06/07 04:30:51;;;;;;;30.83;17.33;;;;;;;-141.97;78.75;47595.97;5012627;28;20277;-81
2023/06/07 04:33:19;;;;;;;28.97;16.70;;;;;;;-141.97;78.01;47753.56;5011749;28;20170;-82
2023/06/07 04:35:45;;;;;;;27.87;14.83;;;;;;;-141.97;77.36;47592.13;5012219;28;20155;-82
2023/06/07 04:38:15;;;;;;;27.00;15.63;;;;;;;-141.97;77.00;47522.91;5012573;28;20179;-82
2023/06/07 04:40:42;;;;;;;29.77;15.83;;;;;;;-141.97;76.05;47611.34;5012260;28;20297;-82
2023/06/07 04:43:10;;;;;;;28.73;15.63;;;;;;;-141.97;75.59;47572.91;5012463;28;20169;-82
2023/06/07 04:45:42;;;;;;;28.63;16.03;;;;;;;-141.97;75.21;47555.59;5012457;28;20151;-83
2023/06/07 04:48:07;;;;;;;24.23;14.50;;;;;;;-141.97;73.97;47740.13;5011340;28;20171;-81
2023/06/07 04:50:33;;;;;;;26.00;14.73;;;;;;;-141.97;73.45;47565.22;5016779;28;20163;-81
2023/06/07 04:53:03;;;;;;;25.37;14.57;;;;;;;-141.97;73.48;47578.66;5031852;28;20236;-82
2023/06/07 04:55:34;;;;;;;24.70;14.40;;;;;;;-141.97;74.13;47551.75;5047493;28;20620;-83
2023/06/07 04:58:01;;;;;;;24.37;14.47;;;;;;;-141.97;73.30;47484.47;5032216;28;20623;-83
2023/06/07 05:00:26;;;;;;;21.73;13.70;;;;;;;-141.97;72.65;47546.00;5032380;28;20147;-82
2023/06/07 05:02:53;;;;;;;25.20;15.03;;;;;;;-141.97;72.86;47547.91;5035716;28;20882;-83
2023/06/07 05:05:21;;;;;;;28.93;15.77;;;;;;;-141.97;72.70;47532.53;5052626;28;20154;-84
2023/06/07 05:07:46;;;;;;;27.23;14.43;;;;;;;-141.97;72.55;47547.91;5043672;28;20183;-84
2023/06/07 05:10:13;;;;;;;22.80;13.97;;;;;;;-141.97;72.40;47684.38;5031600;28;20166;-82
2023/06/07 05:12:38;;;;;;;23.67;14.23;;;;;;;-141.97;71.54;47505.63;5030013;28;20213;-82
2023/06/07 05:15:05;;;;;;;25.40;14.43;;;;;;;-141.97;70.31;47505.63;5030620;28;20297;-82
2023/06/07 05:17:31;;;;;;;25.03;14.03;;;;;;;-141.97;70.20;47515.22;5031740;28;20193;-82
2023/06/07 05:19:56;;;;;;;24.53;14.20;;;;;;;-141.97;70.12;47534.44;5032695;28;20611;-84
2023/06/07 05:22:21;;;;;;;26.30;13.87;;;;;;;-141.97;68.87;47555.59;5035436;28;20162;-83
2023/06/07 05:24:47;;;;;;;24.40;13.73;;;;;;;-141.97;69.94;47726.66;5035634;28;20201;-82
2023/06/07 05:27:12;;;;;;;23.27;13.93;;;;;;;-141.97;70.24;47488.31;5035647;28;20170;-83
2023/06/07 05:29:38;;;;;;;21.00;13.43;;;;;;;-141.97;70.75;47569.06;5035992;28;20170;-82
2023/06/07 05:32:04;;;;;;;22.47;13.50;;;;;;;-141.97;70.21;47599.81;5039398;28;20201;-82
2023/06/07 05:34:29;;;;;;;25.23;13.90;;;;;;;-141.97;70.35;47557.53;5043665;28;20232;-81
2023/06/07 05:36:55;;;;;;;24.73;13.67;;;;;;;-141.97;71.13;47768.94;5044918;28;20230;-82
2023/06/07 05:39:20;;;;;;;20.57;12.47;;;;;;;-141.97;70.18;47521.00;5038868;28;20166;-83
2023/06/07 05:41:46;;;;;;;22.73;13.07;;;;;;;-141.97;69.13;47503.69;5034567;28;20228;-83
2023/06/07 05:44:11;;;;;;;23.43;13.47;;;;;;;-141.97;69.22;47626.72;5036052;28;20169;-82
2023/06/07 05:46:37;;;;;;;20.90;13.17;;;;;;;-141.97;69.61;47595.97;5035543;28;20177;-82
2023/06/07 05:49:02;;;;;;;22.97;12.77;;;;;;;-141.97;69.32;47499.84;5035101;28;20158;-81
2023/06/07 05:51:28;;;;;;;19.80;12.63;;;;;;;-141.97;68.33;47522.91;5034771;28;20271;-80
2023/06/07 05:53:53;;;;;;;19.80;12.37;;;;;;;-141.97;67.18;47472.94;5034248;28;20201;-81
2023/06/07 05:56:21;;;;;;;22.87;12.30;;;;;;;-141.97;68.42;47553.69;5033374;28;20186;-81
2023/06/07 05:58:49;;;;;;;21.27;12.77;;;;;;;-141.97;69.33;47569.06;5034226;28;20182;-81
2023/06/07 06:01:15;;;;;;;22.20;12.50;;;;;;;-141.97;68.60;47563.28;5034847;28;20245;-82
2023/06/07 06:03:40;;;;;;;21.70;12.93;;;;;;;-141.97;67.58;47665.16;5034688;28;20182;-81
2023/06/07 06:06:15;;;;;;;21.07;12.33;;;;;;;-141.97;66.98;47549.84;5034563;28;20815;-81
2023/06/07 06:08:40;;;;;;;22.53;11.73;;;;;;;-141.97;66.77;47496.00;5034539;28;20646;-81
2023/06/07 06:11:06;;;;;;;23.20;13.27;;;;;;;-141.97;66.53;47561.38;5034518;28;20192;-82
2023/06/07 06:13:32;;;;;;;19.40;12.27;;;;;;;-141.97;68.12;47684.38;5034799;28;20224;-81
2023/06/07 06:15:58;;;;;;;20.10;13.07;;;;;;;-141.97;67.25;47511.38;5033992;28;20635;-83
2023/06/07 06:18:23;;;;;;;22.37;12.20;;;;;;;-141.97;66.87;47578.66;5032719;28;20231;-82
2023/06/07 06:20:49;;;;;;;20.77;12.30;;;;;;;-141.97;66.54;47530.59;5034052;28;20203;-82
2023/06/07 06:23:14;;;;;;;20.13;12.17;;;;;;;-141.97;66.27;47578.66;5034723;28;20162;-81
2023/06/07 06:25:40;;;;;;;26.60;12.70;;;;;;;-141.97;66.30;47615.19;5034073;28;20204;-85
2023/06/07 06:28:05;;;;;;;21.87;12.53;;;;;;;-141.97;66.02;47615.19;5032574;28;20326;-82
2023/06/07 06:30:31;;;;;;;21.97;12.90;;;;;;;-141.97;65.97;47722.81;5031520;28;20220;-82
2023/06/07 06:32:56;;;;;;;24.30;12.20;;;;;;;-141.97;66.07;47430.66;5032188;28;20178;-82
2023/06/07 06:35:22;;;;;;;21.17;12.47;;;;;;;-141.97;65.94;47540.22;5032121;28;20202;-83
2023/06/07 06:37:47;;;;;;;18.70;11.70;;;;;;;-141.97;65.67;47403.75;5032693;28;20189;-83
2023/06/07 06:40:13;;;;;;;20.27;11.67;;;;;;;-141.97;64.82;47380.69;5032199;28;21015;-84
2023/06/07 06:42:38;;;;;;;18.87;11.33;;;;;;;-141.97;63.72;47772.78;5033432;28;20275;-83
2023/06/07 06:45:05;;;;;;;19.97;11.60;;;;;;;-141.97;63.33;47561.38;5033464;28;20196;-82
2023/06/07 06:47:30;;;;;;;19.47;11.50;;;;;;;-141.97;63.42;47576.75;5032381;28;20228;-82
2023/06/07 06:49:56;;;;;;;15.73;11.53;;;;;;;-141.97;62.27;47442.19;5032271;28;20162;-83
2023/06/07 06:52:22;;;;;;;19.70;11.77;;;;;;;-141.97;62.55;47457.56;5033852;28;20173;-83
2023/06/07 06:54:47;;;;;;;21.70;11.80;;;;;;;-141.97;62.77;47536.38;5032552;28;20747;-82
2023/06/07 06:57:13;;;;;;;19.27;12.23;;;;;;;-141.97;60.79;47701.69;5032439;28;20181;-84
2023/06/07 06:59:38;;;;;;;18.00;11.23;;;;;;;-141.97;60.62;47336.50;5033838;28;20248;-83
2023/06/07 07:02:05;;;;;;;16.93;10.63;;;;;;;-141.97;60.29;47503.69;5033870;28;20201;-84
2023/06/07 07:04:31;;;;;;;15.20;10.90;;;;;;;-141.97;59.76;47467.19;5033955;28;20172;-83
2023/06/07 07:06:57;;;;;;;14.83;10.63;;;;;;;-141.97;59.09;47747.81;5033743;28;20165;-84
2023/06/07 07:09:22;;;;;;;19.37;11.03;;;;;;;-141.97;59.54;47482.56;5049364;28;20169;-84
2023/06/07 07:11:48;;;;;;;16.03;11.30;;;;;;;-141.97;61.04;47465.25;5033799;28;20174;-83
2023/06/07 07:14:13;;;;;;;19.17;11.47;;;;;;;-141.97;62.75;47538.28;5031886;28;20223;-82
2023/06/07 07:16:38;;;;;;;15.87;10.17;;;;;;;-141.97;62.71;47413.38;5032908;28;20197;-84
2023/06/07 07:19:04;;;;;;;16.30;11.33;;;;;;;-141.97;62.04;47669.00;5033435;28;20269;-84
2023/06/07 07:21:30;;;;;;;18.97;11.10;;;;;;;-141.97;60.01;47480.63;5032940;28;20166;-82
2023/06/07 07:23:55;;;;;;;18.83;10.87;;;;;;;-141.97;58.89;47540.22;5032481;28;20645;-82
2023/06/07 07:26:21;;;;;;;16.33;11.20;;;;;;;-141.97;57.82;47511.38;5038602;28;20174;-83
2023/06/07 07:28:46;;;;;;;13.93;10.63;;;;;;;-141.97;56.69;47676.69;5054621;28;20241;-82
2023/06/07 07:31:13;;;;;;;15.37;11.07;;;;;;;-141.97;56.24;47732.44;5037004;28;20162;-83
2023/06/07 07:33:39;;;;;;;15.70;11.70;;;;;;;-141.97;55.72;47373.00;5031936;28;20201;-82
2023/06/07 07:36:05;;;;;;;16.27;11.63;;;;;;;-141.97;56.56;47496.00;5024740;28;20186;-83
2023/06/07 07:38:32;;;;;;;15.40;11.20;;;;;;;-141.97;57.90;47292.28;5031976;28;20331;-84
2023/06/07 07:40:58;;;;;;;15.90;11.53;;;;;;;-141.97;57.67;47384.53;5031666;28;20598;-85
2023/06/07 07:43:24;;;;;;;19.57;12.13;;;;;;;-141.97;56.37;47401.84;5031970;28;20166;-83
2023/06/07 07:45:50;;;;;;;18.23;11.67;;;;;;;-141.97;55.75;47465.25;5032453;28;20220;-83
2023/06/07 07:48:15;;;;;;;17.73;12.10;;;;;;;-141.97;54.91;47620.94;5032701;28;20169;-81
2023/06/07 07:50:40;;;;;;;16.83;11.63;;;;;;;-141.97;55.16;47519.06;5030789;28;20359;-83
2023/06/07 07:53:06;;;;;;;15.63;11.33;;;;;;;-141.97;55.67;47603.66;5032273;28;20256;-81
2023/06/07 07:55:32;;;;;;;16.73;12.40;;;;;;;-141.97;56.11;47388.38;5031564;28;20275;-82
2023/06/07 07:57:58;;;;;;;16.20;11.97;;;;;;;-141.97;57.06;47446.03;5031478;28;20242;-82
2023/06/07 08:00:24;;;;;;;18.20;11.87;;;;;;;-141.97;56.13;47405.69;5032130;28;20174;-80
2023/06/07 08:02:50;;;;;;;14.67;11.07;;;;;;;-141.97;55.46;47446.03;5047880;28;20626;-81
2023/06/07 08:05:15;;;;;;;14.87;10.90;;;;;;;-141.97;54.90;47722.81;5032861;28;20169;-81
2023/06/07 08:07:41;;;;;;;13.90;10.70;;;;;;;-141.97;54.30;47378.78;5032714;28;20720;-82
2023/06/07 08:10:08;;;;;;;12.47;9.70;;;;;;;-141.97;53.92;47551.75;5037277;28;20174;-82
2023/06/07 08:12:34;;;;;;;13.20;9.27;;;;;;;-141.97;53.58;47674.78;5029015;28;20184;-83
2023/06/07 08:14:59;;;;;;;13.17;10.00;;;;;;;-141.97;52.58;47407.59;5032133;28;20280;-83
2023/06/07 08:17:25;;;;;;;15.13;10.17;;;;;;;-141.97;53.38;47670.91;5029424;28;21325;-84
2023/06/07 08:19:51;;;;;;;11.70;8.27;;;;;;;-141.97;52.41;47738.19;5029752;28;20252;-83
2023/06/07 08:22:16;;;;;;;13.07;8.50;;;;;;;-141.97;52.92;47665.16;5032954;28;20952;-83
2023/06/07 08:24:42;;;;;;;13.30;8.67;;;;;;;-141.97;52.49;47492.16;5031693;28;20205;-83
2023/06/07 08:27:07;;;;;;;12.77;9.07;;;;;;;-141.97;52.63;47663.22;5030875;28;20173;-83
2023/06/07 08:29:33;;;;;;;14.97;9.63;;;;;;;-141.97;53.37;47263.47;5030774;28;20593;-80
2023/06/07 08:31:58;;;;;;;14.97;9.57;;;;;;;-141.97;52.28;47522.91;5031572;28;20223;-83
2023/06/07 08:34:29;;;;;;;11.47;8.90;;;;;;;-141.97;53.52;47382.63;5031467;28;20213;-82
2023/06/07 08:36:55;;;;;;;13.33;9.70;;;;;;;-141.97;53.47;47499.84;5031031;28;20273;-83
2023/06/07 08:39:27;;;;;;;14.37;9.10;;;;;;;-141.97;52.63;47401.84;5030813;28;20249;-83
2023/06/07 08:41:52;;;;;;;12.80;9.17;;;;;;;-141.97;53.40;47521.00;5030357;28;20226;-82
2023/06/07 08:44:18;;;;;;;12.93;8.70;;;;;;;-141.97;53.53;47480.63;5030073;28;20239;-80
2023/06/07 08:46:46;;;;;;;12.37;8.50;;;;;;;-141.97;53.70;47617.09;5031275;28;20285;-81
2023/06/07 08:49:12;;;;;;;13.67;8.80;;;;;;;-141.97;52.94;47501.78;5030514;28;20174;-82
2023/06/07 08:51:41;;;;;;;11.37;8.57;;;;;;;-141.97;51.73;47492.16;5022123;28;20225;-82
2023/06/07 08:54:10;;;;;;;13.33;8.30;;;;;;;-141.97;50.67;47428.75;5035103;28;20190;-82
2023/06/07 08:56:38;;;;;;;12.40;8.60;;;;;;;-141.97;50.68;47676.69;5035892;28;20223;-81
2023/06/07 08:59:04;;;;;;;12.47;8.57;;;;;;;-141.97;50.16;47449.88;5034683;28;20174;-79
2023/06/07 09:01:34;;;;;;;12.97;8.10;;;;;;;-141.97;50.32;47480.63;5034700;28;20162;-81
2023/06/07 09:04:00;;;;;;;11.03;7.93;;;;;;;-141.97;50.06;47492.16;5035154;28;20181;-81
2023/06/07 09:06:26;;;;;;;13.90;8.30;;;;;;;-141.97;51.12;47718.97;5034311;28;20170;-81
2023/06/07 09:08:52;;;;;;;10.77;7.77;;;;;;;-141.97;50.24;47494.09;5034546;28;20180;-80
2023/06/07 09:11:18;;;;;;;10.43;8.00;;;;;;;-141.97;50.50;47376.84;5034569;28;20166;-82
2023/06/07 09:13:43;;;;;;;13.17;8.60;;;;;;;-141.97;49.97;47411.44;5033089;28;20689;-83
2023/06/07 09:16:12;;;;;;;12.67;8.50;;;;;;;-141.97;50.52;47392.22;5034337;28;20990;-81
2023/06/07 09:18:42;;;;;;;11.20;8.47;;;;;;;-141.97;49.34;47492.16;5032979;28;20599;-83
2023/06/07 09:21:21;;;;;;;11.27;8.43;;;;;;;-141.97;49.02;47438.34;5033646;28;20200;-82
2023/06/07 09:23:46;;;;;;;9.20;7.60;;;;;;;-141.97;47.83;47434.50;5032374;28;20182;-81
2023/06/07 09:26:12;;;;;;;10.47;7.80;;;;;;;-141.97;47.14;47630.56;5034515;28;20170;-83
2023/06/07 09:28:37;;;;;;;12.73;8.30;;;;;;;-141.97;48.58;47638.25;5034825;28;20320;-83
2023/06/07 09:31:04;;;;;;;10.70;7.37;;;;;;;-141.97;47.84;47424.91;5034249;28;20732;-83
2023/06/07 09:33:34;;;;;;;10.73;7.27;;;;;;;-141.97;48.12;47657.47;5032902;28;20198;-83
2023/06/07 09:36:08;;;;;;;9.70;7.72;;;;;;;-141.97;48.09;47251.94;5034045;28;20171;-82
2023/06/07 09:38:37;;;;;;;12.18;7.28;;;;;;;-141.97;47.49;47453.72;5034369;28;20191;-83
2023/06/07 09:41:05;;;;;;;12.07;8.00;;;;;;;-141.97;47.89;47422.97;5034656;28;20297;-82
2023/06/07 09:43:43;;;;;;;13.57;7.30;;;;;;;-141.97;46.75;47472.94;5033610;28;20670;-83
2023/06/07 09:46:09;;;;;;;11.05;7.50;;;;;;;-141.97;46.59;47538.28;5034688;28;20176;-82
2023/06/07 09:48:51;;;;;;;11.07;7.00;;;;;;;-141.97;46.57;47488.31;5042158;28;20186;-81
2023/06/07 09:51:18;;;;;;;11.65;6.93;;;;;;;-141.97;45.93;47476.78;5043557;28;20250;-81
2023/06/07 09:53:55;;;;;;;11.15;6.95;;;;;;;-141.97;45.86;47484.47;5036647;28;20191;-82
2023/06/07 09:56:22;;;;;;;11.07;6.65;;;;;;;-141.97;45.38;47597.88;5033688;28;20207;-82
2023/06/07 09:59:04;;;;;;;8.93;6.70;;;;;;;-141.97;45.64;47472.94;5034643;28;20165;-82
2023/06/07 10:01:35;;;;;;;10.30;6.88;;;;;;;-141.97;45.66;47323.03;5033196;28;20621;-83
2023/06/07 10:04:04;;;;;;;9.18;6.70;;;;;;;-141.97;45.41;47344.19;5031804;28;20194;-84
2023/06/07 10:06:32;;;;;;;9.20;6.43;;;;;;;-141.97;44.16;47619.03;5034005;28;20225;-83
2023/06/07 10:09:02;;;;;;;7.75;5.97;;;;;;;-141.97;43.67;47586.34;5033597;28;20247;-83
2023/06/07 10:11:30;;;;;;;8.52;6.00;;;;;;;-141.97;44.53;47465.25;5034911;28;20166;-82
2023/06/07 10:13:56;;;;;;;11.85;6.25;;;;;;;-141.97;44.30;47413.38;5032712;28;20691;-84
2023/06/07 10:16:24;;;;;;;10.93;6.57;;;;;;;-141.97;44.55;47449.88;5032892;28;20158;-83
2023/06/07 10:18:51;;;;;;;10.85;6.38;;;;;;;-141.97;44.28;47688.22;5033177;28;20633;-83
2023/06/07 10:21:19;;;;;;;8.40;6.10;;;;;;;-141.97;44.36;47344.19;5033098;28;20277;-82
2023/06/07 10:23:53;;;;;;;10.68;6.38;;;;;;;-141.97;43.40;47438.34;5033908;28;20171;-82
2023/06/07 10:26:25;;;;;;;9.30;6.20;;;;;;;-141.97;42.24;47488.31;5033442;28;20179;-82
2023/06/07 10:28:53;;;;;;;9.13;5.88;;;;;;;-141.97;42.28;47457.56;5032819;28;20191;-86
2023/06/07 10:31:24;;;;;;;9.93;6.30;;;;;;;-141.97;42.04;47323.03;5033577;28;20191;-83
2023/06/07 10:33:51;;;;;;;9.90;5.93;;;;;;;-141.97;42.28;47326.88;5033007;28;20204;-83
2023/06/07 10:36:19;;;;;;;8.02;5.97;;;;;;;-141.97;43.73;47647.84;5033474;28;20269;-83
2023/06/07 10:38:45;;;;;;;9.07;6.13;;;;;;;-141.97;44.08;47705.53;5034011;28;20166;-84
2023/06/07 10:41:11;;;;;;;9.90;6.10;;;;;;;-141.97;44.16;47451.81;5033698;28;20221;-83
2023/06/07 10:43:38;;;;;;;8.73;5.82;;;;;;;-141.97;43.45;47361.47;5032644;28;20246;-83
2023/06/07 10:46:25;;;;;;;8.45;5.80;;;;;;;-141.97;42.22;47451.81;5033177;28;20171;-83
2023/06/07 10:48:52;;;;;;;8.93;6.07;;;;;;;-141.97;42.97;47338.41;5027885;28;20253;-83
2023/06/07 10:51:19;;;;;;;9.82;6.50;;;;;;;-141.97;42.83;47228.88;5020899;28;20232;-82
2023/06/07 10:53:48;;;;;;;7.38;5.60;;;;;;;-141.97;43.62;47457.56;5031215;28;20194;-84
2023/06/07 10:56:28;;;;;;;8.82;6.00;;;;;;;-141.97;44.48;47484.47;5031488;28;20175;-83
2023/06/07 10:58:55;;;;;;;7.07;6.03;;;;;;;-141.97;44.52;47440.28;5038629;28;20239;-83
2023/06/07 11:01:25;;;;;;;7.43;5.47;;;;;;;-141.97;44.37;47472.94;5033529;28;20206;-82
2023/06/07 11:03:51;;;;;;;8.30;5.47;;;;;;;-141.97;44.54;47505.63;5034768;28;20206;-82